createdAt,value
2022-10-15T00:00:50.092Z,25.47
2022-10-15T00:03:16.819Z,25.13
2022-10-15T00:05:43.363Z,23.70
2022-10-15T00:08:11.241Z,27.57
2022-10-15T00:10:38.201Z,29.03
2022-10-15T00:13:05.431Z,24.40
2022-10-15T00:15:32.432Z,23.30
2022-10-15T00:17:58.988Z,27.97
2022-10-15T00:20:25.567Z,32.73
2022-10-15T00:22:52.143Z,25.73
2022-10-15T00:25:18.777Z,27.17
2022-10-15T00:27:45.338Z,30.33
2022-10-15T00:30:12.513Z,32.30
2022-10-15T00:32:39.467Z,29.70
2022-10-15T00:35:06.752Z,28.67
2022-10-15T00:37:33.293Z,27.80
2022-10-15T00:39:59.941Z,39.33
2022-10-15T00:42:26.672Z,34.90
2022-10-15T00:44:56.742Z,29.23
2022-10-15T00:47:41.607Z,34.20
2022-10-15T00:50:16.524Z,33.07
2022-10-15T00:53:05.135Z,38.53
2022-10-15T00:55:33.183Z,35.13
2022-10-15T00:58:05.100Z,34.87
2022-10-15T01:00:32.148Z,38.63
2022-10-15T01:02:58.902Z,35.53
2022-10-15T01:05:25.475Z,40.20
2022-10-15T01:07:52.209Z,33.73
2022-10-15T01:10:20.901Z,34.53
2022-10-15T01:13:02.524Z,39.07
2022-10-15T01:15:59.791Z,46.40
2022-10-15T01:18:33.498Z,38.30
2022-10-15T01:21:13.541Z,39.07
2022-10-15T01:24:13.985Z,41.93
2022-10-15T01:27:09.897Z,47.03
2022-10-15T01:30:09.473Z,42.13
2022-10-15T01:32:38.817Z,41.73
2022-10-15T01:35:15.850Z,48.70
2022-10-15T01:38:07.277Z,45.17
2022-10-15T01:40:47.121Z,41.77
2022-10-15T01:43:17.526Z,48.33
2022-10-15T01:45:49.171Z,52.93
2022-10-15T01:48:17.540Z,54.03
2022-10-15T01:50:47.575Z,51.27
2022-10-15T01:53:26.111Z,52.17
2022-10-15T01:55:59.862Z,57.70
2022-10-15T01:58:28.688Z,53.20
2022-10-15T02:00:58.401Z,61.10
2022-10-15T02:03:25.292Z,58.23
2022-10-15T02:05:59.725Z,54.20
2022-10-15T02:08:46.030Z,63.47
2022-10-15T02:11:17.709Z,52.03
2022-10-15T02:13:55.145Z,63.03
2022-10-15T02:16:29.461Z,62.63
2022-10-15T02:19:31.095Z,55.50
2022-10-15T02:22:11.394Z,47.10
2022-10-15T02:24:51.654Z,58.17
2022-10-15T02:27:21.785Z,61.00
2022-10-15T02:29:51.672Z,74.17
2022-10-15T02:32:21.972Z,64.07
2022-10-15T02:34:50.208Z,67.80
2022-10-15T02:37:22.268Z,66.47
2022-10-15T02:39:49.104Z,59.00
2022-10-15T02:42:17.653Z,51.37
2022-10-15T02:44:44.245Z,72.47
2022-10-15T02:47:11.298Z,55.80
2022-10-15T02:49:38.029Z,64.87
2022-10-15T02:52:05.186Z,55.03
2022-10-15T02:54:31.868Z,65.90
2022-10-15T02:56:58.455Z,61.93
2022-10-15T02:59:25.053Z,74.90
2022-10-15T03:01:51.594Z,65.37
2022-10-15T03:04:18.183Z,67.27
2022-10-15T03:06:44.942Z,57.50
2022-10-15T03:09:11.592Z,67.53
2022-10-15T03:11:39.206Z,65.80
2022-10-15T03:14:05.819Z,71.80
2022-10-15T03:16:32.358Z,57.73
2022-10-15T03:18:58.942Z,75.70
2022-10-15T03:21:25.637Z,72.33
2022-10-15T03:23:52.181Z,73.60
2022-10-15T03:26:18.717Z,59.90
2022-10-15T03:28:45.508Z,85.73
2022-10-15T03:31:14.129Z,57.50
2022-10-15T03:33:40.712Z,71.07
2022-10-15T03:36:08.016Z,71.47
2022-10-15T03:38:34.641Z,72.23
2022-10-15T03:41:01.393Z,72.10
2022-10-15T03:43:27.946Z,75.87
2022-10-15T03:45:54.634Z,55.57
2022-10-15T03:48:21.201Z,68.77
2022-10-15T03:50:47.838Z,65.70
2022-10-15T03:53:14.502Z,68.57
2022-10-15T03:55:41.057Z,65.00
2022-10-15T03:58:07.640Z,66.07
2022-10-15T04:00:34.256Z,77.27
2022-10-15T04:03:00.794Z,69.10
2022-10-15T04:05:27.384Z,64.40
2022-10-15T04:07:53.928Z,75.87
2022-10-15T04:10:20.692Z,88.70
2022-10-15T04:12:47.389Z,77.90
2022-10-15T04:15:14.012Z,77.67
2022-10-15T04:17:40.589Z,79.23
2022-10-15T04:20:07.815Z,67.77
2022-10-15T04:22:34.365Z,73.30
2022-10-15T04:25:00.915Z,90.50
2022-10-15T04:27:27.789Z,78.30
2022-10-15T04:29:54.316Z,77.93
2022-10-15T04:32:21.194Z,82.23
2022-10-15T04:34:49.201Z,79.67
2022-10-15T04:37:15.773Z,79.03
2022-10-15T04:39:42.672Z,83.50
2022-10-15T04:42:09.259Z,73.53
2022-10-15T04:44:35.955Z,77.37
2022-10-15T04:47:02.518Z,79.60
2022-10-15T04:49:29.142Z,74.33
2022-10-15T04:51:55.777Z,80.23
2022-10-15T04:54:22.437Z,72.90
2022-10-15T04:56:49.024Z,93.63
2022-10-15T04:59:15.558Z,80.20
2022-10-15T05:01:42.096Z,77.60
2022-10-15T05:04:12.148Z,66.47
2022-10-15T05:06:38.705Z,67.00
2022-10-15T05:09:05.241Z,67.37
2022-10-15T05:11:31.898Z,64.73
2022-10-15T05:13:58.796Z,78.67
2022-10-15T05:16:28.556Z,79.03
2022-10-15T05:19:06.310Z,73.97
2022-10-15T05:21:34.685Z,79.43
2022-10-15T05:24:01.846Z,81.70
2022-10-15T05:26:29.650Z,73.83
2022-10-15T05:28:58.046Z,72.77
2022-10-15T05:31:28.465Z,81.10
2022-10-15T05:33:55.526Z,83.67
2022-10-15T05:36:29.604Z,70.80
2022-10-15T05:38:59.609Z,67.00
2022-10-15T05:41:27.452Z,76.50
2022-10-15T05:43:56.266Z,68.80
2022-10-15T05:46:23.803Z,72.60
2022-10-15T05:48:52.634Z,69.37
2022-10-15T05:51:19.532Z,68.77
2022-10-15T05:53:46.339Z,67.30
2022-10-15T05:56:14.592Z,83.47
2022-10-15T05:58:41.364Z,64.00
2022-10-15T06:01:10.305Z,65.93
2022-10-15T06:03:37.380Z,76.50
2022-10-15T06:06:04.387Z,69.83
2022-10-15T06:08:31.272Z,69.27
2022-10-15T06:11:06.796Z,73.80
2022-10-15T06:13:41.092Z,70.17
2022-10-15T06:16:08.984Z,71.50
2022-10-15T06:18:36.757Z,81.03
2022-10-15T06:21:03.349Z,66.97
2022-10-15T06:23:30.396Z,68.77
2022-10-15T06:25:57.016Z,60.70
2022-10-15T06:28:23.643Z,71.47
2022-10-15T06:30:50.239Z,76.33
2022-10-15T06:33:17.023Z,66.30
2022-10-15T06:35:43.833Z,72.97
2022-10-15T06:38:10.886Z,61.67
2022-10-15T06:40:38.780Z,79.70
2022-10-15T06:43:07.952Z,74.17
2022-10-15T06:45:36.526Z,68.07
2022-10-15T06:48:04.879Z,71.57
2022-10-15T06:50:36.604Z,70.03
2022-10-15T06:53:03.875Z,71.67
2022-10-15T06:55:30.545Z,69.23
2022-10-15T06:57:57.570Z,67.50
2022-10-15T07:00:25.194Z,68.77
2022-10-15T07:02:51.875Z,81.90
2022-10-15T07:05:19.419Z,64.53
2022-10-15T07:07:56.155Z,76.63
2022-10-15T07:10:24.004Z,73.00
2022-10-15T07:12:50.669Z,81.67
2022-10-15T07:15:17.897Z,86.93
2022-10-15T07:17:52.079Z,83.50
2022-10-15T07:20:22.003Z,92.53
2022-10-15T07:22:51.842Z,120.03
2022-10-15T07:25:18.385Z,102.87
2022-10-15T07:27:44.930Z,106.93
2022-10-15T07:30:11.594Z,107.97
2022-10-15T07:32:38.359Z,135.50
2022-10-15T07:35:05.391Z,129.50
2022-10-15T07:37:32.825Z,103.63
2022-10-15T07:39:59.472Z,128.37
2022-10-15T07:42:26.249Z,146.97
2022-10-15T07:44:52.970Z,133.03
2022-10-15T07:47:19.624Z,111.80
2022-10-15T07:49:46.166Z,91.67
2022-10-15T07:52:12.983Z,59.50
2022-10-15T07:54:39.659Z,38.00
2022-10-15T07:57:09.113Z,30.17
2022-10-15T07:59:35.862Z,30.47
2022-10-15T08:02:02.552Z,24.77
2022-10-15T08:04:29.238Z,34.00
2022-10-15T08:06:55.812Z,23.93
2022-10-15T08:09:22.404Z,25.10
2022-10-15T08:11:48.979Z,24.10
2022-10-15T08:14:15.551Z,21.37
2022-10-15T08:16:42.135Z,23.03
2022-10-15T08:19:08.674Z,22.70
2022-10-15T08:21:35.228Z,21.87
2022-10-15T08:24:01.800Z,22.80
2022-10-15T08:26:28.429Z,26.10
2022-10-15T08:28:55.129Z,21.30
2022-10-15T08:31:21.681Z,20.93
2022-10-15T08:33:48.417Z,22.43
2022-10-15T08:36:15.003Z,21.27
2022-10-15T08:38:41.577Z,22.80
2022-10-15T08:41:21.241Z,20.00
2022-10-15T08:43:48.356Z,19.80
2022-10-15T08:46:35.992Z,21.13
2022-10-15T08:49:03.533Z,18.97
2022-10-15T08:51:50.205Z,24.13
2022-10-15T08:54:18.627Z,23.97
2022-10-15T08:56:48.984Z,23.93
2022-10-15T08:59:40.204Z,25.47
2022-10-15T09:02:22.557Z,26.83
2022-10-15T09:05:13.946Z,26.20
2022-10-15T09:07:50.884Z,30.07
2022-10-15T09:10:35.448Z,26.53
2022-10-15T09:13:12.475Z,23.67
2022-10-15T09:15:58.444Z,30.30
2022-10-15T09:18:29.361Z,28.43
2022-10-15T09:20:57.316Z,34.30
2022-10-15T09:23:27.164Z,24.80
2022-10-15T09:26:06.362Z,29.17
2022-10-15T09:28:47.412Z,25.57
2022-10-15T09:31:16.849Z,29.47
2022-10-15T09:33:51.896Z,32.57
2022-10-15T09:36:33.165Z,31.87
2022-10-15T09:39:34.373Z,26.53
2022-10-15T09:42:25.847Z,27.43
2022-10-15T09:44:54.537Z,22.77
2022-10-15T09:47:27.097Z,21.03
2022-10-15T09:49:53.799Z,24.73
2022-10-15T09:52:44.788Z,22.63
2022-10-15T09:55:34.175Z,21.40
2022-10-15T09:58:10.924Z,25.70
2022-10-15T10:00:59.297Z,21.63
2022-10-15T10:03:28.828Z,20.30
2022-10-15T10:06:13.763Z,23.17
2022-10-15T10:11:21.770Z,19.37
2022-10-15T10:13:48.272Z,24.20
2022-10-15T10:16:16.893Z,21.17
2022-10-15T10:18:50.786Z,21.60
2022-10-15T10:21:28.669Z,20.83
2022-10-15T10:23:55.435Z,23.33
2022-10-15T10:26:22.129Z,20.57
2022-10-15T10:29:04.674Z,19.57
2022-10-15T10:31:42.555Z,19.23
2022-10-15T10:34:15.401Z,20.13
2022-10-15T10:36:44.162Z,21.87
2022-10-15T10:39:13.159Z,19.23
2022-10-15T10:41:50.672Z,19.27
2022-10-15T10:44:35.402Z,19.40
2022-10-15T10:47:07.670Z,18.43
2022-10-15T10:49:37.521Z,17.67
2022-10-15T10:52:05.648Z,20.53
2022-10-15T10:54:33.271Z,20.10
2022-10-15T10:57:01.424Z,18.77
2022-10-15T10:59:49.568Z,18.00
2022-10-15T11:02:16.245Z,16.20
2022-10-15T11:04:43.154Z,14.87
2022-10-15T11:07:28.926Z,15.70
2022-10-15T11:10:00.571Z,18.20
2022-10-15T11:12:51.716Z,16.43
2022-10-15T11:15:36.402Z,14.73
2022-10-15T11:18:13.769Z,18.83
2022-10-15T11:21:05.949Z,15.77
2022-10-15T11:24:00.706Z,17.77
2022-10-15T11:26:37.217Z,16.53
2022-10-15T11:29:18.842Z,14.77
2022-10-15T11:32:02.690Z,16.20
2022-10-15T11:35:10.493Z,13.70
2022-10-15T11:38:00.345Z,12.50
2022-10-15T11:40:41.248Z,18.07
2022-10-15T11:43:36.081Z,14.97
2022-10-15T11:46:27.997Z,13.23
2022-10-15T11:49:13.166Z,13.73
2022-10-15T11:52:06.585Z,16.20
2022-10-15T11:54:54.122Z,14.83
2022-10-15T11:57:25.182Z,16.63
2022-10-15T12:00:00.536Z,12.67
2022-10-15T12:02:35.353Z,14.33
2022-10-15T12:05:01.890Z,14.33
2022-10-15T12:07:31.993Z,17.43
2022-10-15T12:10:13.844Z,15.93
2022-10-15T12:12:51.316Z,16.53
2022-10-15T12:15:35.416Z,15.70
2022-10-15T12:18:31.474Z,17.40
2022-10-15T12:20:58.582Z,17.97
2022-10-15T12:23:38.501Z,13.73
2022-10-15T12:26:24.105Z,15.53
2022-10-15T12:28:53.051Z,17.73
2022-10-15T12:31:21.503Z,16.23
2022-10-15T12:33:56.466Z,16.87
2022-10-15T12:36:29.259Z,18.27
2022-10-15T12:39:07.815Z,15.83
2022-10-15T12:41:45.253Z,17.50
2022-10-15T12:44:34.453Z,19.90
2022-10-15T12:47:01.031Z,19.97
2022-10-15T12:49:31.862Z,16.73
2022-10-15T12:52:00.673Z,17.27
2022-10-15T12:54:46.093Z,15.27
2022-10-15T12:57:30.954Z,15.90
2022-10-15T12:59:59.470Z,17.00
2022-10-15T13:05:29.117Z,17.20
2022-10-15T13:07:58.373Z,15.27
2022-10-15T13:10:32.749Z,15.67
2022-10-15T13:13:04.785Z,14.23
2022-10-15T13:15:34.051Z,15.63
2022-10-15T13:18:07.509Z,16.67
2022-10-15T13:20:45.200Z,15.83
2022-10-15T13:23:46.005Z,19.93
2022-10-15T13:26:26.865Z,20.10
2022-10-15T13:28:56.835Z,14.97
2022-10-15T13:31:29.073Z,13.10
2022-10-15T13:34:10.684Z,12.47
2022-10-15T13:36:38.657Z,13.37
2022-10-15T13:42:26.106Z,15.17
2022-10-15T13:45:16.689Z,15.30
2022-10-15T13:47:49.265Z,14.50
2022-10-15T13:50:28.896Z,18.00
2022-10-15T13:53:09.075Z,14.17
2022-10-15T13:55:38.317Z,13.47
2022-10-15T13:58:27.835Z,16.97
2022-10-15T14:01:23.621Z,13.50
2022-10-15T14:03:52.033Z,13.43
2022-10-15T14:06:27.467Z,15.57
2022-10-15T14:08:56.612Z,16.67
2022-10-15T14:11:24.352Z,13.90
2022-10-15T14:13:58.499Z,15.17
2022-10-15T14:16:31.239Z,13.30
2022-10-15T14:19:09.991Z,12.70
2022-10-15T14:21:42.570Z,15.37
2022-10-15T14:24:16.965Z,15.43
2022-10-15T14:26:44.484Z,14.77
2022-10-15T14:29:22.286Z,17.97
2022-10-15T14:31:49.225Z,18.67
2022-10-15T14:34:35.203Z,15.70
2022-10-15T14:37:43.168Z,15.47
2022-10-15T14:40:09.964Z,17.40
2022-10-15T14:42:46.198Z,17.27
2022-10-15T14:45:17.094Z,18.80
2022-10-15T14:47:54.301Z,20.90
2022-10-15T14:50:25.364Z,19.37
2022-10-15T14:52:53.925Z,19.43
2022-10-15T14:55:23.874Z,19.00
2022-10-15T14:57:51.857Z,18.53
2022-10-15T15:00:27.057Z,18.47
2022-10-15T15:02:58.993Z,19.57
2022-10-15T15:05:27.131Z,19.73
2022-10-15T15:07:56.733Z,18.50
2022-10-15T15:10:25.506Z,21.60
2022-10-15T15:12:55.993Z,18.10
2022-10-15T15:15:24.744Z,29.83
2022-10-15T15:17:51.872Z,22.20
2022-10-15T15:20:22.564Z,18.60
2022-10-15T15:22:51.749Z,17.97
2022-10-15T15:25:29.758Z,18.87
2022-10-15T15:27:57.112Z,20.30
2022-10-15T15:30:25.634Z,18.63
2022-10-15T15:32:52.208Z,14.90
2022-10-15T15:35:20.589Z,19.37
2022-10-15T15:37:47.222Z,16.40
2022-10-15T15:40:13.921Z,16.70
2022-10-15T15:42:41.569Z,18.40
2022-10-15T15:45:20.717Z,16.57
2022-10-15T15:47:47.678Z,16.10
2022-10-15T15:50:15.425Z,13.30
2022-10-15T15:52:43.648Z,13.47
2022-10-15T15:55:10.999Z,12.90
2022-10-15T15:57:37.578Z,12.47
2022-10-15T16:00:06.668Z,10.60
2022-10-15T16:02:33.866Z,11.53
2022-10-15T16:05:01.773Z,12.97
2022-10-15T16:07:29.398Z,10.77
2022-10-15T16:09:56.236Z,10.60
2022-10-15T16:12:22.962Z,9.77
2022-10-15T16:14:49.643Z,11.07
2022-10-15T16:17:17.534Z,11.70
2022-10-15T16:19:44.281Z,9.87
2022-10-15T16:22:10.931Z,8.37
2022-10-15T16:24:37.519Z,8.73
2022-10-15T16:27:04.131Z,8.43
2022-10-15T16:29:30.678Z,10.20
2022-10-15T16:31:57.340Z,11.27
2022-10-15T16:34:24.848Z,8.70
2022-10-15T16:36:51.469Z,9.07
2022-10-15T16:39:18.353Z,9.50
2022-10-15T16:41:45.033Z,7.93
2022-10-15T16:44:11.704Z,8.03
2022-10-15T16:46:38.246Z,7.23
2022-10-15T16:49:04.854Z,8.23
2022-10-15T16:54:03.326Z,7.43
2022-10-15T16:56:31.483Z,7.17
2022-10-15T16:58:58.418Z,8.97
2022-10-15T17:01:27.778Z,10.77
2022-10-15T17:03:54.494Z,6.90
2022-10-15T17:06:28.013Z,6.77
2022-10-15T17:08:59.569Z,9.10
2022-10-15T17:11:34.737Z,8.00
2022-10-15T17:14:07.305Z,7.30
2022-10-15T17:16:38.021Z,6.53
2022-10-15T17:19:05.187Z,6.20
2022-10-15T17:21:32.199Z,7.33
2022-10-15T17:24:01.273Z,7.60
2022-10-15T17:26:33.351Z,6.07
2022-10-15T17:29:00.331Z,6.47
2022-10-15T17:31:27.448Z,9.50
2022-10-15T17:33:59.505Z,7.03
2022-10-15T17:36:27.916Z,8.27
2022-10-15T17:38:59.448Z,7.27
2022-10-15T17:41:28.593Z,6.53
2022-10-15T17:43:55.573Z,6.47
2022-10-15T17:46:25.610Z,7.53
2022-10-15T17:48:53.415Z,7.00
2022-10-15T17:51:22.892Z,8.40
2022-10-15T17:53:52.649Z,8.53
2022-10-15T17:56:27.907Z,6.67
2022-10-15T17:58:54.750Z,6.10
2022-10-15T18:01:33.400Z,7.90
2022-10-15T18:04:06.690Z,7.27
2022-10-15T18:06:33.361Z,6.60
2022-10-15T18:09:00.265Z,7.10
2022-10-15T18:11:33.136Z,7.30
2022-10-15T18:14:00.094Z,8.03
2022-10-15T18:16:27.115Z,7.37
2022-10-15T18:18:54.661Z,7.27
2022-10-15T18:21:24.038Z,7.07
2022-10-15T18:23:50.593Z,8.33
2022-10-15T18:26:21.021Z,6.93
2022-10-15T18:28:49.862Z,7.77
2022-10-15T18:31:17.696Z,6.23
2022-10-15T18:33:46.709Z,6.00
2022-10-15T18:36:16.687Z,5.87
2022-10-15T18:38:43.475Z,7.30
2022-10-15T18:41:25.589Z,6.30
2022-10-15T18:44:04.381Z,7.27
2022-10-15T18:46:31.894Z,4.73
2022-10-15T18:48:58.522Z,6.70
2022-10-15T18:51:25.719Z,6.07
2022-10-15T18:53:52.558Z,7.00
2022-10-15T18:56:19.216Z,7.37
2022-10-15T18:58:45.806Z,5.00
2022-10-15T19:01:24.715Z,6.07
2022-10-15T19:03:52.533Z,5.87
2022-10-15T19:06:20.296Z,6.00
2022-10-15T19:08:46.916Z,5.27
2022-10-15T19:11:14.104Z,5.80
2022-10-15T19:13:40.995Z,5.57
2022-10-15T19:16:07.775Z,5.63
2022-10-15T19:18:36.997Z,3.93
2022-10-15T19:21:06.846Z,7.37
2022-10-15T19:23:34.399Z,4.93
2022-10-15T19:26:01.788Z,4.10
2022-10-15T19:28:29.052Z,5.53
2022-10-15T19:30:57.757Z,6.70
2022-10-15T19:33:25.829Z,5.13
2022-10-15T19:35:53.105Z,5.27
2022-10-15T19:38:20.096Z,5.77
2022-10-15T19:40:49.400Z,6.10
2022-10-15T19:43:18.479Z,6.10
2022-10-15T19:45:45.941Z,3.53
2022-10-15T19:48:19.688Z,5.77
2022-10-15T19:50:47.144Z,5.83
2022-10-15T19:53:16.343Z,6.43
2022-10-15T19:55:44.253Z,3.70
2022-10-15T19:58:11.073Z,5.83
2022-10-15T20:00:37.596Z,5.67
2022-10-15T20:03:04.292Z,6.70
2022-10-15T20:05:30.870Z,6.13
2022-10-15T20:07:57.485Z,6.17
2022-10-15T20:10:26.111Z,6.10
2022-10-15T20:12:53.158Z,4.20
2022-10-15T20:15:19.856Z,5.50
2022-10-15T20:17:47.094Z,4.47
2022-10-15T20:20:13.662Z,6.63
2022-10-15T20:22:40.205Z,5.10
2022-10-15T20:25:07.000Z,5.43
2022-10-15T20:27:33.883Z,3.73
2022-10-15T20:30:00.474Z,8.73
2022-10-15T20:32:35.280Z,4.53
2022-10-15T20:35:04.473Z,5.03
2022-10-15T20:37:31.845Z,6.43
2022-10-15T20:39:59.506Z,4.60
2022-10-15T20:42:26.295Z,7.03
2022-10-15T20:44:52.966Z,5.53
2022-10-15T20:47:20.022Z,4.50
2022-10-15T20:49:50.772Z,4.70
2022-10-15T20:52:17.373Z,6.87
2022-10-15T20:54:44.121Z,6.40
2022-10-15T20:57:11.341Z,5.57
2022-10-15T20:59:37.921Z,6.60
2022-10-15T21:02:04.522Z,5.77
2022-10-15T21:04:31.232Z,11.23
2022-10-15T21:06:58.103Z,21.73
2022-10-15T21:09:24.785Z,24.50
2022-10-15T21:11:51.344Z,15.23
2022-10-15T21:14:17.901Z,10.57
2022-10-15T21:16:44.549Z,8.23
2022-10-15T21:19:11.117Z,8.00
2022-10-15T21:21:37.722Z,8.23
2022-10-15T21:24:04.525Z,5.80
2022-10-15T21:26:31.056Z,6.17
2022-10-15T21:28:59.555Z,6.53
2022-10-15T21:31:27.133Z,9.43
2022-10-15T21:33:55.369Z,5.90
2022-10-15T21:36:26.200Z,6.07
2022-10-15T21:38:53.965Z,4.57
2022-10-15T21:41:21.600Z,5.53
2022-10-15T21:46:20.291Z,5.87
2022-10-15T21:48:46.839Z,5.50
2022-10-15T21:51:16.233Z,5.30
2022-10-15T21:53:43.401Z,4.37
2022-10-15T21:56:10.430Z,6.20
2022-10-15T21:58:38.134Z,6.17
2022-10-15T22:01:09.696Z,5.83
2022-10-15T22:03:36.310Z,5.33
2022-10-15T22:06:03.041Z,6.77
2022-10-15T22:08:30.708Z,5.17
2022-10-15T22:11:38.516Z,6.20
2022-10-15T22:14:09.341Z,5.40
2022-10-15T22:16:38.053Z,5.63
2022-10-15T22:19:05.516Z,5.53
2022-10-15T22:21:36.135Z,4.30
2022-10-15T22:24:09.789Z,5.13
2022-10-15T22:26:38.877Z,8.97
2022-10-15T22:29:07.481Z,13.37
2022-10-15T22:31:34.175Z,6.80
2022-10-15T22:34:00.986Z,5.20
2022-10-15T22:36:31.197Z,4.20
2022-10-15T22:39:04.888Z,4.73
2022-10-15T22:41:34.537Z,4.27
2022-10-15T22:44:01.220Z,9.83
2022-10-15T22:46:28.740Z,5.83
2022-10-15T22:48:55.274Z,5.50
2022-10-15T22:51:22.166Z,4.47
2022-10-15T22:53:48.725Z,10.17
2022-10-15T22:56:17.601Z,3.80
2022-10-15T22:58:44.858Z,5.30
2022-10-15T23:01:16.933Z,3.63
2022-10-15T23:03:45.521Z,4.50
2022-10-15T23:06:12.968Z,4.43
2022-10-15T23:08:40.388Z,3.17
2022-10-15T23:11:14.849Z,3.63
2022-10-15T23:13:42.450Z,2.90
2022-10-15T23:16:19.346Z,2.40
2022-10-15T23:18:47.192Z,6.97
2022-10-15T23:21:14.893Z,3.63
2022-10-15T23:23:42.488Z,3.43
2022-10-15T23:26:12.442Z,7.47
2022-10-15T23:28:39.305Z,3.20
2022-10-15T23:31:06.145Z,3.23
2022-10-15T23:33:32.765Z,2.13
2022-10-15T23:36:02.703Z,2.40
2022-10-15T23:38:29.865Z,2.17
2022-10-15T23:41:01.372Z,2.33
2022-10-15T23:43:27.957Z,2.67
2022-10-15T23:45:54.682Z,2.37
2022-10-15T23:48:21.409Z,3.47
2022-10-15T23:50:48.144Z,2.57
2022-10-15T23:53:14.710Z,4.13
2022-10-15T23:55:42.216Z,3.10
2022-10-15T23:58:09.129Z,2.70
